createdAt,value
2019-05-30T00:00:28.137Z,0.00
2019-05-30T00:01:28.130Z,0.00
2019-05-30T00:02:28.120Z,0.00
2019-05-30T00:03:28.252Z,0.00
2019-05-30T00:04:28.094Z,0.00
2019-05-30T00:05:28.089Z,0.00
2019-05-30T00:06:28.088Z,0.00
2019-05-30T00:07:28.109Z,0.00
2019-05-30T00:08:28.064Z,0.00
2019-05-30T00:09:28.052Z,0.00
2019-05-30T00:10:28.037Z,0.00
2019-05-30T00:11:28.035Z,0.00
2019-05-30T00:12:28.006Z,0.00
2019-05-30T00:13:27.996Z,0.00
2019-05-30T00:14:28.035Z,0.00
2019-05-30T00:15:27.974Z,0.00
2019-05-30T00:16:27.977Z,5.62
2019-05-30T00:17:27.950Z,5.62
2019-05-30T00:18:27.948Z,5.62
2019-05-30T00:19:27.960Z,5.62
2019-05-30T00:20:27.921Z,5.62
2019-05-30T00:21:27.914Z,5.62
2019-05-30T00:22:27.903Z,5.62
2019-05-30T00:23:27.887Z,5.62
2019-05-30T00:24:27.917Z,5.62
2019-05-30T00:25:38.276Z,5.62
2019-05-30T00:26:27.852Z,5.62
2019-05-30T00:27:35.340Z,5.62
2019-05-30T00:28:27.837Z,5.62
2019-05-30T00:29:27.823Z,5.62
2019-05-30T00:30:27.827Z,11.25
2019-05-30T00:31:27.811Z,11.25
2019-05-30T00:32:27.797Z,11.25
2019-05-30T00:33:27.781Z,11.25
2019-05-30T00:34:27.787Z,11.25
2019-05-30T00:35:27.791Z,11.25
2019-05-30T00:36:27.753Z,11.25
2019-05-30T00:37:27.742Z,11.25
2019-05-30T00:38:27.729Z,11.25
2019-05-30T00:39:27.726Z,16.88
2019-05-30T00:40:27.757Z,16.88
2019-05-30T00:41:27.699Z,16.88
2019-05-30T00:42:27.719Z,16.88
2019-05-30T00:43:27.674Z,16.88
2019-05-30T00:44:28.172Z,16.88
2019-05-30T00:45:27.660Z,16.88
2019-05-30T00:46:27.656Z,22.50
2019-05-30T00:47:27.639Z,22.50
2019-05-30T00:48:27.632Z,22.50
2019-05-30T00:49:27.616Z,22.50
2019-05-30T00:50:27.605Z,22.50
2019-05-30T00:51:27.610Z,22.50
2019-05-30T00:52:27.581Z,28.12
2019-05-30T00:53:27.569Z,28.12
2019-05-30T00:54:27.562Z,28.12
2019-05-30T00:55:27.546Z,28.12
2019-05-30T00:56:27.584Z,28.12
2019-05-30T00:57:27.524Z,33.75
2019-05-30T00:58:37.721Z,33.75
2019-05-30T00:59:27.507Z,33.75
2019-05-30T01:00:42.779Z,33.75
2019-05-30T01:01:28.505Z,39.38
2019-05-30T01:02:27.460Z,39.38
2019-05-30T01:03:27.459Z,39.38
2019-05-30T01:04:27.445Z,39.38
2019-05-30T01:05:27.443Z,45.00
2019-05-30T01:06:27.433Z,45.00
2019-05-30T01:07:27.457Z,45.00
2019-05-30T01:08:27.429Z,50.62
2019-05-30T01:09:27.398Z,50.62
2019-05-30T01:10:27.382Z,50.62
2019-05-30T01:11:27.368Z,56.25
2019-05-30T01:12:27.390Z,56.25
2019-05-30T01:13:27.356Z,56.25
2019-05-30T01:14:27.343Z,56.25
2019-05-30T01:15:27.326Z,61.88
2019-05-30T01:16:27.315Z,61.88
2019-05-30T01:17:27.302Z,61.88
2019-05-30T01:18:27.361Z,67.50
2019-05-30T01:19:27.283Z,67.50
2019-05-30T01:20:27.271Z,67.50
2019-05-30T01:21:27.261Z,73.12
2019-05-30T01:22:27.259Z,73.12
2019-05-30T01:23:27.246Z,73.12
2019-05-30T01:24:27.228Z,78.75
2019-05-30T01:25:27.219Z,78.75
2019-05-30T01:26:27.203Z,78.75
2019-05-30T01:27:27.191Z,84.38
2019-05-30T01:28:27.238Z,84.38
2019-05-30T01:29:38.555Z,84.38
2019-05-30T01:30:27.158Z,90.00
2019-05-30T01:31:27.148Z,90.00
2019-05-30T01:32:27.146Z,90.00
2019-05-30T01:33:27.135Z,95.62
2019-05-30T01:34:27.124Z,95.62
2019-05-30T01:35:27.111Z,95.62
2019-05-30T01:36:27.106Z,101.25
2019-05-30T01:37:27.088Z,101.25
2019-05-30T01:38:27.085Z,101.25
2019-05-30T01:39:27.106Z,106.88
2019-05-30T01:40:27.060Z,106.88
2019-05-30T01:41:27.042Z,106.88
2019-05-30T01:42:27.029Z,112.50
2019-05-30T01:43:27.041Z,112.50
2019-05-30T01:44:27.008Z,112.50
2019-05-30T01:45:27.019Z,118.12
2019-05-30T01:46:26.991Z,118.12
2019-05-30T01:47:26.980Z,123.75
2019-05-30T01:48:26.968Z,123.75
2019-05-30T01:49:27.002Z,123.75
2019-05-30T01:50:26.957Z,129.38
2019-05-30T01:51:26.943Z,129.38
2019-05-30T01:52:26.923Z,129.38
2019-05-30T01:53:26.912Z,135.00
2019-05-30T01:54:26.903Z,135.00
2019-05-30T01:55:26.902Z,140.62
2019-05-30T01:56:26.881Z,140.62
2019-05-30T01:57:26.881Z,140.62
2019-05-30T01:58:26.857Z,146.25
2019-05-30T01:59:26.849Z,146.25
2019-05-30T02:00:37.278Z,151.88
2019-05-30T02:01:26.827Z,151.88
2019-05-30T02:02:26.813Z,151.88
2019-05-30T02:03:26.796Z,157.50
2019-05-30T02:04:26.785Z,157.50
2019-05-30T02:05:26.798Z,157.50
2019-05-30T02:06:26.764Z,163.12
2019-05-30T02:07:26.766Z,163.12
2019-05-30T02:08:26.752Z,163.12
2019-05-30T02:09:26.735Z,163.12
2019-05-30T02:10:26.731Z,168.75
2019-05-30T02:11:26.727Z,168.75
2019-05-30T02:12:26.705Z,168.75
2019-05-30T02:13:26.690Z,174.38
2019-05-30T02:14:26.687Z,174.38
2019-05-30T02:15:26.675Z,174.38
2019-05-30T02:16:26.674Z,174.38
2019-05-30T02:17:26.661Z,180.00
2019-05-30T02:18:26.641Z,180.00
2019-05-30T02:19:26.665Z,180.00
2019-05-30T02:20:26.615Z,185.62
2019-05-30T02:21:26.608Z,185.62
2019-05-30T02:22:26.607Z,185.62
2019-05-30T02:23:26.602Z,191.25
2019-05-30T02:24:26.574Z,191.25
2019-05-30T02:25:26.570Z,191.25
2019-05-30T02:26:26.579Z,191.25
2019-05-30T02:27:26.555Z,191.25
2019-05-30T02:28:26.529Z,191.25
2019-05-30T02:29:26.521Z,191.25
2019-05-30T02:30:26.508Z,196.88
2019-05-30T02:31:39.314Z,196.88
2019-05-30T02:32:26.506Z,196.88
2019-05-30T02:33:26.470Z,196.88
2019-05-30T02:34:26.469Z,202.50
2019-05-30T02:35:26.457Z,202.50
2019-05-30T02:36:26.449Z,202.50
2019-05-30T02:37:26.436Z,208.12
2019-05-30T02:38:26.422Z,208.12
2019-05-30T02:39:26.407Z,208.12
2019-05-30T02:40:26.393Z,213.75
2019-05-30T02:41:26.416Z,213.75
2019-05-30T02:42:26.386Z,213.75
2019-05-30T02:43:26.412Z,219.38
2019-05-30T02:44:26.381Z,219.38
2019-05-30T02:45:26.362Z,219.38
2019-05-30T02:46:26.348Z,219.38
2019-05-30T02:47:26.312Z,225.00
2019-05-30T02:48:26.312Z,225.00
2019-05-30T02:49:26.311Z,225.00
2019-05-30T02:50:26.295Z,236.25
2019-05-30T02:51:26.267Z,230.62
2019-05-30T02:52:26.267Z,230.62
2019-05-30T02:53:26.261Z,230.62
2019-05-30T02:54:26.265Z,236.25
2019-05-30T02:55:26.232Z,236.25
2019-05-30T02:56:26.231Z,236.25
2019-05-30T02:57:26.219Z,241.88
2019-05-30T02:58:26.193Z,241.88
2019-05-30T02:59:26.251Z,247.50
2019-05-30T03:00:26.186Z,247.50
2019-05-30T03:01:26.182Z,247.50
2019-05-30T03:02:36.405Z,253.12
2019-05-30T03:03:26.141Z,253.12
2019-05-30T03:04:26.146Z,258.75
2019-05-30T03:05:26.139Z,270.00
2019-05-30T03:06:26.102Z,354.38
2019-05-30T03:07:26.103Z,523.12
2019-05-30T03:08:26.094Z,731.25
2019-05-30T03:09:26.070Z,883.12
2019-05-30T03:10:26.071Z,1040.62
2019-05-30T03:11:26.070Z,1220.62
2019-05-30T03:12:33.040Z,1276.88
2019-05-30T03:13:26.032Z,1254.38
2019-05-30T03:14:26.029Z,1288.12
2019-05-30T03:15:26.029Z,1310.62
2019-05-30T03:16:25.994Z,1276.88
2019-05-30T03:17:25.982Z,1288.12
2019-05-30T03:18:25.969Z,1350.00
2019-05-30T03:19:25.979Z,1366.88
2019-05-30T03:20:25.988Z,1321.88
2019-05-30T03:21:25.945Z,1327.50
2019-05-30T03:22:25.937Z,1350.00
2019-05-30T03:23:25.949Z,1350.00
2019-05-30T03:24:25.930Z,1366.88
2019-05-30T03:25:25.894Z,1310.62
2019-05-30T03:26:25.899Z,1186.88
2019-05-30T03:27:25.887Z,1305.00
2019-05-30T03:28:25.872Z,1378.12
2019-05-30T03:29:25.852Z,1338.75
2019-05-30T03:30:29.074Z,1276.88
2019-05-30T03:31:29.169Z,1260.00
2019-05-30T03:33:38.794Z,1333.12
2019-05-30T03:34:29.167Z,1310.62
2019-05-30T03:35:30.182Z,1293.75
2019-05-30T03:36:30.589Z,1271.25
2019-05-30T03:37:29.121Z,1276.88
2019-05-30T03:38:25.770Z,1293.75
2019-05-30T03:39:25.780Z,1282.50
2019-05-30T03:40:27.788Z,1299.38
2019-05-30T03:41:25.736Z,1293.75
2019-05-30T03:42:25.741Z,1321.88
2019-05-30T03:43:35.796Z,1366.88
2019-05-30T03:44:25.694Z,1305.00
2019-05-30T03:45:25.679Z,1310.62
2019-05-30T03:46:25.687Z,1293.75
2019-05-30T03:47:25.710Z,1288.12
2019-05-30T03:48:25.653Z,1316.25
2019-05-30T03:49:25.657Z,1310.62
2019-05-30T03:50:25.646Z,1321.88
2019-05-30T03:51:25.633Z,1327.50
2019-05-30T03:52:25.613Z,1344.38
2019-05-30T03:53:25.612Z,1350.00
2019-05-30T03:54:25.594Z,1350.00
2019-05-30T03:55:25.584Z,1355.62
2019-05-30T03:56:25.584Z,1333.12
2019-05-30T03:57:25.570Z,1310.62
2019-05-30T03:58:25.570Z,1344.38
2019-05-30T03:59:25.536Z,1355.62
2019-05-30T04:00:25.533Z,1344.38
2019-05-30T04:01:25.530Z,1321.88
2019-05-30T04:02:25.527Z,1299.38
2019-05-30T04:03:25.516Z,1282.50
2019-05-30T04:04:25.513Z,1276.88
2019-05-30T04:05:25.473Z,1338.75
2019-05-30T04:06:25.453Z,1316.25
2019-05-30T04:07:25.481Z,1254.38
2019-05-30T04:08:25.486Z,1265.62
2019-05-30T04:09:25.502Z,1271.25
2019-05-30T04:10:25.424Z,1265.62
2019-05-30T04:11:25.405Z,1243.12
2019-05-30T04:12:25.412Z,1237.50
2019-05-30T04:13:25.380Z,1254.38
2019-05-30T04:14:35.907Z,1260.00
2019-05-30T04:15:25.362Z,1237.50
2019-05-30T04:16:25.369Z,1215.00
2019-05-30T04:17:25.336Z,1231.88
2019-05-30T04:18:25.335Z,1237.50
2019-05-30T04:19:25.336Z,1215.00
2019-05-30T04:20:25.332Z,1186.88
2019-05-30T04:21:25.304Z,1158.75
2019-05-30T04:22:25.294Z,1181.25
2019-05-30T04:23:25.288Z,1170.00
2019-05-30T04:24:25.283Z,1130.62
2019-05-30T04:25:25.264Z,1119.38
2019-05-30T04:26:25.261Z,1136.25
2019-05-30T04:27:25.233Z,1153.12
2019-05-30T04:28:25.220Z,1136.25
2019-05-30T04:29:25.220Z,1091.25
2019-05-30T04:30:25.249Z,1096.88
2019-05-30T04:31:25.212Z,1096.88
2019-05-30T04:32:25.182Z,1136.25
2019-05-30T04:33:32.563Z,1136.25
2019-05-30T04:34:26.160Z,1096.88
2019-05-30T04:35:25.145Z,1125.00
2019-05-30T04:36:25.280Z,1141.88
2019-05-30T04:37:25.138Z,1141.88
2019-05-30T04:38:25.132Z,1158.75
2019-05-30T04:39:25.109Z,1147.50
2019-05-30T04:40:25.100Z,1164.38
2019-05-30T04:41:25.103Z,1209.38
2019-05-30T04:42:25.086Z,1226.25
2019-05-30T04:43:25.068Z,1254.38
2019-05-30T04:44:25.073Z,1260.00
2019-05-30T04:45:35.688Z,1254.38
2019-05-30T04:46:25.083Z,1276.88
2019-05-30T04:47:25.041Z,1299.38
2019-05-30T04:48:25.012Z,1333.12
2019-05-30T04:49:25.021Z,1316.25
2019-05-30T04:50:25.035Z,1254.38
2019-05-30T04:51:24.993Z,1237.50
2019-05-30T04:52:25.211Z,1254.38
2019-05-30T04:53:24.979Z,1226.25
2019-05-30T04:54:24.956Z,1243.12
2019-05-30T04:55:24.936Z,1243.12
2019-05-30T04:56:24.927Z,1198.12
2019-05-30T04:57:26.791Z,1108.12
2019-05-30T04:58:24.935Z,1125.00
2019-05-30T04:59:24.901Z,1136.25
2019-05-30T05:00:24.889Z,1147.50
2019-05-30T05:01:24.906Z,1158.75
2019-05-30T05:02:24.879Z,1119.38
2019-05-30T05:03:44.612Z,939.38
2019-05-30T05:04:25.859Z,697.50
2019-05-30T05:05:27.049Z,590.62
2019-05-30T05:06:24.827Z,635.62
2019-05-30T05:07:25.109Z,770.62
2019-05-30T05:08:24.808Z,1012.50
2019-05-30T05:09:24.803Z,1226.25
2019-05-30T05:10:24.787Z,1130.62
2019-05-30T05:11:25.514Z,928.12
2019-05-30T05:12:24.769Z,826.88
2019-05-30T05:13:24.763Z,748.12
2019-05-30T05:14:24.731Z,686.25
2019-05-30T05:15:24.725Z,680.62
2019-05-30T05:16:36.493Z,663.75
2019-05-30T05:17:24.697Z,635.62
2019-05-30T05:18:24.700Z,618.75
2019-05-30T05:19:26.032Z,635.62
2019-05-30T05:20:24.665Z,669.38
2019-05-30T05:21:24.671Z,630.00
2019-05-30T05:22:24.640Z,585.00
2019-05-30T05:23:24.637Z,573.75
2019-05-30T05:24:24.730Z,585.00
2019-05-30T05:25:24.629Z,590.62
2019-05-30T05:26:24.622Z,585.00
2019-05-30T05:27:24.595Z,585.00
2019-05-30T05:28:24.586Z,579.38
2019-05-30T05:29:24.597Z,573.75
2019-05-30T05:30:24.578Z,568.12
2019-05-30T05:31:24.558Z,585.00
2019-05-30T05:32:24.685Z,601.88
2019-05-30T05:33:24.830Z,601.88
2019-05-30T05:34:24.850Z,590.62
2019-05-30T05:35:25.028Z,585.00
2019-05-30T05:36:25.189Z,601.88
2019-05-30T05:37:25.319Z,618.75
2019-05-30T05:38:24.575Z,641.25
2019-05-30T05:39:24.472Z,669.38
2019-05-30T05:40:24.494Z,691.88
2019-05-30T05:41:24.437Z,748.12
2019-05-30T05:42:28.386Z,815.62
2019-05-30T05:43:25.423Z,843.75
2019-05-30T05:44:24.593Z,826.88
2019-05-30T05:45:24.727Z,646.88
2019-05-30T05:46:24.614Z,382.50
2019-05-30T05:47:34.565Z,315.00
2019-05-30T05:48:24.782Z,303.75
2019-05-30T05:49:24.889Z,298.12
2019-05-30T05:50:24.632Z,298.12
2019-05-30T05:51:24.783Z,298.12
2019-05-30T05:52:24.887Z,298.12
2019-05-30T05:53:25.134Z,298.12
2019-05-30T05:54:25.042Z,298.12
2019-05-30T05:55:24.987Z,298.12
2019-05-30T05:56:24.913Z,298.12
2019-05-30T05:57:25.019Z,298.12
2019-05-30T05:58:26.135Z,298.12
2019-05-30T05:59:25.212Z,298.12
2019-05-30T06:00:25.287Z,298.12
2019-05-30T06:01:25.413Z,298.12
2019-05-30T06:02:25.190Z,298.12
2019-05-30T06:03:24.338Z,298.12
2019-05-30T06:04:25.249Z,298.12
2019-05-30T06:05:24.387Z,298.12
2019-05-30T06:06:25.325Z,298.12
2019-05-30T06:07:24.595Z,298.12
2019-05-30T06:08:24.179Z,298.12
2019-05-30T06:09:24.638Z,298.12
2019-05-30T06:10:24.128Z,298.12
2019-05-30T06:11:24.620Z,298.12
2019-05-30T06:12:24.106Z,298.12
2019-05-30T06:13:24.851Z,298.12
2019-05-30T06:14:24.247Z,298.12
2019-05-30T06:15:24.981Z,298.12
2019-05-30T06:16:24.195Z,298.12
2019-05-30T06:17:25.087Z,298.12
2019-05-30T06:18:36.518Z,298.12
2019-05-30T06:19:25.256Z,298.12
2019-05-30T06:20:24.020Z,298.12
2019-05-30T06:21:24.022Z,298.12
2019-05-30T06:22:23.999Z,298.12
2019-05-30T06:23:23.983Z,298.12
2019-05-30T06:24:24.038Z,298.12
2019-05-30T06:25:25.244Z,298.12
2019-05-30T06:26:25.917Z,298.12
2019-05-30T06:27:24.061Z,298.12
2019-05-30T06:28:24.218Z,298.12
2019-05-30T06:29:24.147Z,298.12
2019-05-30T06:30:24.453Z,298.12
2019-05-30T06:31:24.474Z,298.12
2019-05-30T06:32:24.655Z,298.12
2019-05-30T06:33:24.989Z,298.12
2019-05-30T06:34:34.790Z,298.12
2019-05-30T06:35:25.058Z,298.12
2019-05-30T06:36:25.016Z,298.12
2019-05-30T06:37:25.132Z,298.12
2019-05-30T06:38:23.834Z,298.12
2019-05-30T06:39:23.811Z,298.12
2019-05-30T06:40:23.833Z,298.12
2019-05-30T06:41:23.797Z,298.12
2019-05-30T06:42:23.784Z,298.12
2019-05-30T06:43:24.361Z,298.12
2019-05-30T06:44:24.007Z,298.12
2019-05-30T06:45:25.185Z,298.12
2019-05-30T06:46:24.159Z,298.12
2019-05-30T06:47:24.364Z,298.12
2019-05-30T06:48:24.619Z,298.12
2019-05-30T06:49:34.368Z,298.12
2019-05-30T06:50:24.733Z,298.12
2019-05-30T06:51:24.772Z,298.12
2019-05-30T06:52:24.875Z,298.12
2019-05-30T06:53:23.673Z,298.12
2019-05-30T06:54:24.697Z,298.12
2019-05-30T06:55:23.672Z,298.12
2019-05-30T06:56:23.639Z,298.12
2019-05-30T06:57:23.635Z,298.12
2019-05-30T06:58:39.114Z,298.12
2019-05-30T06:59:25.532Z,303.75
2019-05-30T07:00:23.748Z,303.75
2019-05-30T07:01:23.831Z,303.75
2019-05-30T07:02:24.253Z,303.75
2019-05-30T07:03:24.289Z,303.75
2019-05-30T07:04:25.200Z,303.75
2019-05-30T07:05:25.585Z,309.38
2019-05-30T07:06:25.112Z,303.75
2019-05-30T07:07:24.925Z,303.75
2019-05-30T07:08:24.634Z,303.75
2019-05-30T07:09:24.819Z,303.75
2019-05-30T07:10:24.778Z,303.75
2019-05-30T07:11:24.661Z,303.75
2019-05-30T07:12:23.488Z,303.75
2019-05-30T07:13:23.444Z,298.12
2019-05-30T07:14:23.445Z,298.12
2019-05-30T07:15:23.439Z,298.12
2019-05-30T07:16:23.477Z,298.12
2019-05-30T07:17:23.440Z,298.12
2019-05-30T07:18:23.521Z,298.12
2019-05-30T07:19:23.443Z,298.12
2019-05-30T07:20:33.940Z,298.12
2019-05-30T07:21:23.608Z,298.12
2019-05-30T07:22:23.570Z,298.12
2019-05-30T07:23:23.726Z,298.12
2019-05-30T07:24:23.724Z,298.12
2019-05-30T07:25:23.813Z,298.12
2019-05-30T07:26:23.865Z,298.12
2019-05-30T07:27:23.792Z,298.12
2019-05-30T07:28:23.826Z,298.12
2019-05-30T07:29:23.945Z,298.12
2019-05-30T07:30:23.799Z,298.12
2019-05-30T07:31:24.023Z,298.12
2019-05-30T07:32:24.028Z,298.12
2019-05-30T07:33:23.960Z,298.12
2019-05-30T07:34:23.888Z,298.12
2019-05-30T07:35:23.952Z,298.12
2019-05-30T07:36:24.087Z,298.12
2019-05-30T07:37:24.492Z,298.12
2019-05-30T07:38:24.312Z,298.12
2019-05-30T07:39:26.320Z,298.12
2019-05-30T07:40:24.522Z,298.12
2019-05-30T07:41:24.528Z,298.12
2019-05-30T07:42:23.151Z,298.12
2019-05-30T07:43:26.220Z,298.12
2019-05-30T07:44:23.117Z,298.12
2019-05-30T07:45:23.113Z,298.12
2019-05-30T07:46:23.089Z,298.12
2019-05-30T07:47:23.077Z,298.12
2019-05-30T07:48:23.073Z,298.12
2019-05-30T07:49:23.076Z,298.12
2019-05-30T07:50:23.072Z,298.12
2019-05-30T07:51:34.655Z,298.12
2019-05-30T07:52:23.282Z,298.12
2019-05-30T07:53:23.045Z,298.12
2019-05-30T07:54:23.047Z,298.12
2019-05-30T07:55:23.004Z,298.12
2019-05-30T07:56:22.984Z,298.12
2019-05-30T07:57:22.971Z,298.12
2019-05-30T07:58:22.970Z,303.75
2019-05-30T07:59:22.945Z,303.75
2019-05-30T08:00:22.963Z,298.12
2019-05-30T08:01:22.967Z,303.75
2019-05-30T08:02:22.937Z,303.75
2019-05-30T08:03:22.930Z,303.75
2019-05-30T08:04:22.900Z,303.75
2019-05-30T08:05:24.590Z,303.75
2019-05-30T08:06:22.877Z,303.75
2019-05-30T08:07:22.871Z,303.75
2019-05-30T08:08:22.867Z,309.38
2019-05-30T08:09:22.850Z,303.75
2019-05-30T08:10:22.838Z,303.75
2019-05-30T08:11:22.830Z,303.75
2019-05-30T08:12:22.805Z,303.75
2019-05-30T08:13:22.800Z,303.75
2019-05-30T08:14:22.782Z,303.75
2019-05-30T08:15:22.829Z,303.75
2019-05-30T08:16:22.789Z,303.75
2019-05-30T08:17:22.772Z,303.75
2019-05-30T08:18:22.742Z,303.75
2019-05-30T08:19:22.732Z,303.75
2019-05-30T08:20:22.723Z,303.75
2019-05-30T08:21:22.721Z,303.75
2019-05-30T08:22:36.293Z,303.75
2019-05-30T08:23:22.689Z,303.75
2019-05-30T08:24:22.680Z,303.75
2019-05-30T08:25:22.671Z,303.75
2019-05-30T08:26:22.659Z,303.75
2019-05-30T08:27:22.691Z,303.75
2019-05-30T08:28:22.647Z,303.75
2019-05-30T08:29:22.641Z,303.75
2019-05-30T08:30:22.623Z,303.75
2019-05-30T08:31:22.614Z,303.75
2019-05-30T08:32:22.603Z,303.75
2019-05-30T08:33:22.598Z,309.38
2019-05-30T08:34:22.570Z,303.75
2019-05-30T08:35:36.438Z,303.75
2019-05-30T08:36:23.553Z,303.75
2019-05-30T08:37:22.557Z,303.75
2019-05-30T08:38:22.561Z,303.75
2019-05-30T08:39:22.528Z,303.75
2019-05-30T08:40:22.513Z,309.38
2019-05-30T08:41:22.498Z,309.38
2019-05-30T08:42:22.489Z,309.38
2019-05-30T08:43:22.488Z,309.38
2019-05-30T08:44:22.508Z,309.38
2019-05-30T08:45:22.453Z,309.38
2019-05-30T08:46:22.451Z,309.38
2019-05-30T08:47:22.432Z,309.38
2019-05-30T08:48:22.435Z,309.38
2019-05-30T08:49:22.434Z,309.38
2019-05-30T08:50:22.397Z,309.38
2019-05-30T08:51:22.394Z,309.38
2019-05-30T08:52:23.112Z,309.38
2019-05-30T08:53:32.751Z,309.38
2019-05-30T08:54:22.354Z,309.38
2019-05-30T08:55:22.347Z,309.38
2019-05-30T08:56:22.336Z,309.38
2019-05-30T08:57:22.323Z,309.38
2019-05-30T08:58:22.344Z,309.38
2019-05-30T08:59:22.308Z,309.38
2019-05-30T09:00:22.304Z,309.38
2019-05-30T09:01:22.304Z,309.38
2019-05-30T09:02:22.295Z,309.38
2019-05-30T09:03:22.257Z,309.38
2019-05-30T09:04:22.281Z,309.38
2019-05-30T09:05:22.241Z,309.38
2019-05-30T09:06:22.240Z,315.00
2019-05-30T09:07:22.245Z,315.00
2019-05-30T09:08:22.276Z,315.00
2019-05-30T09:09:22.194Z,309.38
2019-05-30T09:10:22.230Z,315.00
2019-05-30T09:11:22.176Z,320.62
2019-05-30T09:12:22.201Z,315.00
2019-05-30T09:13:22.153Z,315.00
2019-05-30T09:14:22.144Z,315.00
2019-05-30T09:15:22.384Z,315.00
2019-05-30T09:16:22.132Z,315.00
2019-05-30T09:17:22.119Z,315.00
2019-05-30T09:18:22.123Z,315.00
2019-05-30T09:19:22.093Z,315.00
2019-05-30T09:20:22.070Z,315.00
2019-05-30T09:21:22.094Z,315.00
2019-05-30T09:22:22.076Z,315.00
2019-05-30T09:23:22.054Z,309.38
2019-05-30T09:24:33.649Z,315.00
2019-05-30T09:25:22.020Z,315.00
2019-05-30T09:26:22.019Z,309.38
2019-05-30T09:27:22.002Z,315.00
2019-05-30T09:28:21.989Z,315.00
2019-05-30T09:29:21.981Z,315.00
2019-05-30T09:30:21.968Z,309.38
2019-05-30T09:31:22.002Z,315.00
2019-05-30T09:32:21.950Z,309.38
2019-05-30T09:33:21.934Z,309.38
2019-05-30T09:34:21.931Z,309.38
2019-05-30T09:35:21.936Z,309.38
2019-05-30T09:36:21.905Z,309.38
2019-05-30T09:37:21.915Z,309.38
2019-05-30T09:38:21.903Z,309.38
2019-05-30T09:39:21.877Z,309.38
2019-05-30T09:40:21.868Z,309.38
2019-05-30T09:41:21.853Z,309.38
2019-05-30T09:42:21.866Z,309.38
2019-05-30T09:43:21.826Z,320.62
2019-05-30T09:44:21.836Z,315.00
2019-05-30T09:45:21.806Z,315.00
2019-05-30T09:46:21.796Z,315.00
2019-05-30T09:47:21.794Z,309.38
2019-05-30T09:48:21.779Z,309.38
2019-05-30T09:49:21.769Z,315.00
2019-05-30T09:50:21.754Z,315.00
2019-05-30T09:51:21.778Z,315.00
2019-05-30T09:52:21.736Z,315.00
2019-05-30T09:53:21.777Z,309.38
2019-05-30T09:54:21.715Z,309.38
2019-05-30T09:55:33.335Z,309.38
2019-05-30T09:56:21.684Z,309.38
2019-05-30T09:57:21.739Z,309.38
2019-05-30T09:58:21.663Z,309.38
2019-05-30T09:59:21.664Z,309.38
2019-05-30T10:00:21.650Z,309.38
2019-05-30T10:01:21.818Z,309.38
2019-05-30T10:02:21.623Z,309.38
2019-05-30T10:03:21.636Z,309.38
2019-05-30T10:04:21.612Z,309.38
2019-05-30T10:05:24.442Z,309.38
2019-05-30T10:06:29.499Z,309.38
2019-05-30T10:07:22.575Z,315.00
2019-05-30T10:08:21.577Z,315.00
2019-05-30T10:09:21.585Z,315.00
2019-05-30T10:10:21.594Z,315.00
2019-05-30T10:11:21.530Z,315.00
2019-05-30T10:12:21.522Z,315.00
2019-05-30T10:13:21.502Z,315.00
2019-05-30T10:14:21.548Z,315.00
2019-05-30T10:15:21.490Z,315.00
2019-05-30T10:16:21.490Z,315.00
2019-05-30T10:17:21.475Z,315.00
2019-05-30T10:18:21.447Z,315.00
2019-05-30T10:19:21.452Z,315.00
2019-05-30T10:20:21.442Z,315.00
2019-05-30T10:21:21.419Z,315.00
2019-05-30T10:22:21.431Z,315.00
2019-05-30T10:23:21.407Z,315.00
2019-05-30T10:24:21.396Z,315.00
2019-05-30T10:25:21.426Z,320.62
2019-05-30T10:26:33.180Z,320.62
2019-05-30T10:27:21.352Z,320.62
2019-05-30T10:28:21.350Z,331.88
2019-05-30T10:29:21.337Z,337.50
2019-05-30T10:30:21.335Z,343.12
2019-05-30T10:31:21.312Z,337.50
2019-05-30T10:32:21.310Z,331.88
2019-05-30T10:33:21.290Z,326.25
2019-05-30T10:34:21.279Z,326.25
2019-05-30T10:35:21.276Z,320.62
2019-05-30T10:36:21.266Z,320.62
2019-05-30T10:37:21.244Z,320.62
2019-05-30T10:38:21.244Z,320.62
2019-05-30T10:39:21.223Z,320.62
2019-05-30T10:40:21.211Z,320.62
2019-05-30T10:41:21.214Z,315.00
2019-05-30T10:42:21.205Z,315.00
2019-05-30T10:43:21.197Z,315.00
2019-05-30T10:44:21.174Z,315.00
2019-05-30T10:45:21.167Z,320.62
2019-05-30T10:46:21.174Z,315.00
2019-05-30T10:47:21.144Z,315.00
2019-05-30T10:48:21.360Z,315.00
2019-05-30T10:49:34.079Z,315.00
2019-05-30T10:50:22.106Z,315.00
2019-05-30T10:51:21.170Z,315.00
2019-05-30T10:52:21.082Z,315.00
2019-05-30T10:53:21.082Z,315.00
2019-05-30T10:54:21.068Z,315.00
2019-05-30T10:55:21.052Z,315.00
2019-05-30T10:56:21.044Z,315.00
2019-05-30T10:57:31.570Z,315.00
2019-05-30T10:58:21.268Z,315.00
2019-05-30T11:00:30.221Z,315.00
2019-05-30T11:01:30.199Z,315.00
2019-05-30T11:02:30.230Z,315.00
2019-05-30T11:03:30.174Z,315.00
2019-05-30T11:04:30.165Z,315.00
2019-05-30T11:05:30.167Z,315.00
2019-05-30T11:06:30.143Z,315.00
2019-05-30T11:07:30.162Z,315.00
2019-05-30T11:08:30.118Z,315.00
2019-05-30T11:09:30.107Z,315.00
2019-05-30T11:10:30.106Z,315.00
2019-05-30T11:11:30.090Z,315.00
2019-05-30T11:12:30.117Z,315.00
2019-05-30T11:13:30.063Z,315.00
2019-05-30T11:14:30.060Z,315.00
2019-05-30T11:15:30.044Z,315.00
2019-05-30T11:16:30.036Z,315.00
2019-05-30T11:17:30.026Z,315.00
2019-05-30T11:18:30.033Z,315.00
2019-05-30T11:19:30.010Z,315.00
2019-05-30T11:20:29.991Z,315.00
2019-05-30T11:21:29.977Z,315.00
2019-05-30T11:22:30.006Z,315.00
2019-05-30T11:23:29.961Z,315.00
2019-05-30T11:24:29.996Z,315.00
2019-05-30T11:25:29.941Z,315.00
2019-05-30T11:26:29.930Z,315.00
2019-05-30T11:27:29.919Z,315.00
2019-05-30T11:28:29.901Z,315.00
2019-05-30T11:29:29.892Z,315.00
2019-05-30T11:30:40.710Z,315.00
2019-05-30T11:32:50.943Z,315.00
2019-05-30T11:34:49.335Z,315.00
2019-05-30T11:35:48.943Z,315.00
2019-05-30T11:36:49.001Z,315.00
2019-05-30T11:38:59.469Z,320.62
2019-05-30T11:39:59.480Z,326.25
2019-05-30T11:40:59.575Z,331.88
2019-05-30T11:41:59.454Z,331.88
2019-05-30T11:42:59.880Z,337.50
2019-05-30T11:43:59.668Z,337.50
2019-05-30T11:44:59.851Z,331.88
2019-05-30T11:45:58.349Z,331.88
2019-05-30T11:46:58.331Z,331.88
2019-05-30T11:47:58.328Z,343.12
2019-05-30T11:48:58.320Z,348.75
2019-05-30T11:49:58.310Z,281.25
2019-05-30T11:50:58.310Z,360.00
2019-05-30T11:51:58.287Z,365.62
2019-05-30T11:52:58.277Z,371.25
2019-05-30T11:53:58.266Z,264.38
2019-05-30T11:54:58.270Z,253.12
2019-05-30T11:55:58.375Z,247.50
2019-05-30T11:56:58.222Z,247.50
2019-05-30T11:57:58.457Z,247.50
2019-05-30T11:58:58.210Z,275.62
2019-05-30T11:59:58.383Z,247.50
2019-05-30T12:00:58.455Z,354.38
2019-05-30T12:01:58.521Z,360.00
2019-05-30T12:02:58.686Z,365.62
2019-05-30T12:03:58.773Z,365.62
2019-05-30T12:04:58.634Z,371.25
2019-05-30T12:05:58.664Z,365.62
2019-05-30T12:06:58.906Z,360.00
2019-05-30T12:07:58.932Z,354.38
2019-05-30T12:09:05.583Z,348.75
2019-05-30T12:09:58.951Z,348.75
2019-05-30T12:10:59.317Z,343.12
2019-05-30T12:11:59.136Z,343.12
2019-05-30T12:12:59.387Z,343.12
2019-05-30T12:13:59.402Z,348.75
2019-05-30T12:14:59.404Z,348.75
2019-05-30T12:15:59.531Z,348.75
2019-05-30T12:16:59.399Z,354.38
2019-05-30T12:17:57.995Z,348.75
2019-05-30T12:18:58.168Z,343.12
2019-05-30T12:19:57.986Z,337.50
2019-05-30T12:20:57.970Z,337.50
2019-05-30T12:21:57.961Z,331.88
2019-05-30T12:22:58.095Z,331.88
2019-05-30T12:23:58.149Z,331.88
2019-05-30T12:24:58.163Z,331.88
2019-05-30T12:25:58.098Z,331.88
2019-05-30T12:26:58.121Z,331.88
2019-05-30T12:27:58.239Z,337.50
2019-05-30T12:28:58.092Z,337.50
2019-05-30T12:29:58.229Z,343.12
2019-05-30T12:31:01.718Z,343.12
2019-05-30T12:32:00.693Z,343.12
2019-05-30T12:32:58.307Z,343.12
2019-05-30T12:33:58.410Z,337.50